Time;durP1;ratioP1;P1;durP2;ratioP2;P2;SDS_P1;SDS_P2;PMS_P1;PMS_P2;Temp;Humidity;BMP_temperature;BMP_pressure;BME280_temperature;BME280_humidity;BME280_pressure;Samples;Min_cycle;Max_cycle;Signal;HPM_P1;HPM_P2
2022/11/16 00:01:50;;;;;;;;;;;6.60;83.40;;;-151.14;100.00;62537.16;5105459;28;19926;-79
2022/11/16 00:04:18;;;;;;;;;;;6.60;83.30;;;-151.14;100.00;62537.16;5094191;28;19926;-78
2022/11/16 00:06:46;;;;;;;;;;;6.60;83.40;;;-151.14;100.00;62537.16;5111812;28;19927;-78
2022/11/16 00:09:25;;;;;;;;;;;6.60;83.30;;;-151.14;100.00;62537.16;5094087;28;19919;-78
2022/11/16 00:11:56;;;;;;;;;;;6.50;83.40;;;-151.14;100.00;62537.16;5077297;28;19923;-78
2022/11/16 00:14:25;;;;;;;;;;;6.60;83.40;;;-151.14;100.00;62537.16;5077051;28;19926;-78
2022/11/16 00:16:53;;;;;;;;;;;6.60;83.40;;;-151.14;100.00;62537.16;5111722;28;19926;-78
2022/11/16 00:19:21;;;;;;;;;;;6.50;83.40;;;-151.14;100.00;62537.16;5077083;28;19926;-78
2022/11/16 00:21:49;;;;;;;;;;;6.50;83.30;;;-151.14;100.00;62537.16;5083062;28;19926;-78
2022/11/16 00:24:18;;;;;;;;;;;6.60;83.50;;;-151.14;100.00;62537.16;5091334;28;19920;-79
2022/11/16 00:26:46;;;;;;;;;;;6.60;83.40;;;-151.14;100.00;62537.16;5073101;28;20097;-78
2022/11/16 00:29:15;;;;;;;;;;;6.60;83.40;;;-151.14;100.00;62537.16;5073576;28;19926;-78
2022/11/16 00:31:44;;;;;;;;;;;6.50;83.30;;;-151.14;100.00;62537.16;5091550;28;19927;-78
2022/11/16 00:34:12;;;;;;;;;;;6.50;83.30;;;-151.14;100.00;62537.16;5090416;28;19926;-78
2022/11/16 00:36:39;;;;;;;;;;;6.60;83.20;;;-151.14;100.00;62537.16;5107105;28;19920;-78
2022/11/16 00:39:09;;;;;;;;;;;6.60;83.30;;;-151.14;100.00;62537.16;5090036;28;19934;-78
2022/11/16 00:41:37;;;;;;;;;;;6.60;83.30;;;-151.14;100.00;62537.16;5107441;28;20229;-78
2022/11/16 00:44:05;;;;;;;;;;;6.60;83.40;;;-151.14;100.00;62537.16;5089922;28;19920;-78
2022/11/16 00:46:35;;;;;;;;;;;6.50;83.30;;;-151.14;100.00;62537.16;5073190;28;20110;-78
2022/11/16 00:49:04;;;;;;;;;;;6.60;83.30;;;-151.14;100.00;62537.16;5091064;28;19920;-78
2022/11/16 00:51:32;;;;;;;;;;;6.50;83.50;;;-151.14;100.00;62537.16;5056827;28;19920;-78
2022/11/16 00:54:00;;;;;;;;;;;6.50;83.30;;;-151.14;100.00;62537.16;5056570;28;19926;-78
2022/11/16 00:56:29;;;;;;;;;;;6.50;83.40;;;-151.14;100.00;62537.16;5108309;28;20126;-78
2022/11/16 00:58:57;;;;;;;;;;;6.50;83.50;;;-151.14;100.00;62537.16;5060157;28;19994;-78
2022/11/16 01:01:24;;;;;;;;;;;6.50;83.40;;;-151.14;100.00;62537.16;5076992;28;19927;-78
2022/11/16 01:03:54;;;;;;;;;;;6.50;83.40;;;-151.14;100.00;62537.16;5076596;28;20120;-78
2022/11/16 01:06:22;;;;;;;;;;;6.50;83.40;;;-151.14;100.00;62537.16;5094141;28;19928;-78
2022/11/16 01:08:50;;;;;;;;;;;6.50;83.50;;;-151.14;100.00;62537.16;5076732;28;20116;-78
2022/11/16 01:14:04;;;;;;;;;;;6.50;83.70;;;-151.14;100.00;62537.16;5094382;28;19920;-78
2022/11/16 01:16:32;;;;;;;;;;;6.50;83.50;;;-151.14;100.00;62537.16;5093309;28;19920;-78
2022/11/16 01:19:01;;;;;;;;;;;6.50;83.40;;;-151.14;100.00;62537.16;5076296;28;19920;-79
2022/11/16 01:21:29;;;;;;;;;;;6.50;83.50;;;-151.14;100.00;62537.16;5093495;28;20226;-79
2022/11/16 01:23:57;;;;;;;;;;;6.50;83.50;;;-151.14;100.00;62537.16;5059624;28;19927;-78
2022/11/16 01:26:25;;;;;;;;;;;6.50;83.60;;;-151.14;100.00;62537.16;5059604;28;20123;-78
2022/11/16 01:28:53;;;;;;;;;;;6.50;83.50;;;-151.14;100.00;62537.16;5076268;28;19920;-79
2022/11/16 01:31:21;;;;;;;;;;;6.50;83.50;;;-151.14;100.00;62537.16;5076513;28;19920;-78
2022/11/16 01:33:52;;;;;;;;;;;6.50;83.60;;;-151.14;100.00;62537.16;5059558;28;19927;-78
2022/11/16 01:36:26;;;;;;;;;;;6.50;83.50;;;-151.14;100.00;62537.16;5076102;28;19927;-78
2022/11/16 01:38:55;;;;;;;;;;;6.50;84.20;;;-151.14;100.00;62537.16;5059632;28;19926;-78
2022/11/16 01:41:27;;;;;;;;;;;6.50;83.60;;;-151.14;100.00;62537.16;5059493;28;20216;-78
2022/11/16 01:43:58;;;;;;;;;;;6.50;83.40;;;-151.14;100.00;62537.16;5093143;28;19920;-78
2022/11/16 01:46:31;;;;;;;;;;;6.50;83.50;;;-151.14;100.00;62537.16;5075944;28;19920;-78
2022/11/16 01:49:01;;;;;;;;;;;6.50;83.70;;;-151.14;100.00;62537.16;5076064;28;20109;-78
2022/11/16 01:51:31;;;;;;;;;;;6.50;83.60;;;-151.14;100.00;62537.16;5059568;28;20208;-78
2022/11/16 01:54:00;;;;;;;;;;;6.50;83.60;;;-151.14;100.00;62537.16;5075043;28;19919;-78
2022/11/16 01:56:28;;;;;;;;;;;6.50;83.60;;;-151.14;100.00;62537.16;5095930;28;19920;-78
2022/11/16 01:59:08;;;;;;;;;;;6.50;83.60;;;-151.14;100.00;62537.16;5096171;28;19920;-78
2022/11/16 02:01:36;;;;;;;;;;;6.50;83.60;;;-151.14;100.00;62537.16;5114246;28;19919;-78
2022/11/16 02:04:05;;;;;;;;;;;6.50;83.60;;;-151.14;100.00;62537.16;5095981;28;19919;-78
2022/11/16 02:06:46;;;;;;;;;;;6.50;83.60;;;-151.14;100.00;62537.16;5095517;28;19927;-79
2022/11/16 02:12:30;;;;;;;;;;;6.50;83.60;;;-151.14;100.00;62537.16;5096061;28;19920;-78
2022/11/16 02:15:06;;;;;;;;;;;6.50;83.60;;;-151.14;100.00;62537.16;5095563;28;19920;-78
2022/11/16 02:17:39;;;;;;;;;;;6.50;83.50;;;-151.14;100.00;62537.16;5095824;28;20123;-78
2022/11/16 02:20:44;;;;;;;;;;;6.50;83.60;;;-151.14;100.00;62537.16;5095766;28;20097;-78
2022/11/16 02:23:53;;;;;;;;;;;6.50;83.60;;;-151.14;100.00;62537.16;5086065;28;19920;-78
2022/11/16 02:27:07;;;;;;;;;;;6.40;83.50;;;-151.14;100.00;62537.16;5112341;28;19927;-78
2022/11/16 02:29:38;;;;;;;;;;;6.50;83.60;;;-151.14;100.00;62537.16;5035024;28;19920;-81
2022/11/16 02:32:08;;;;;;;;;;;6.50;83.50;;;-151.14;100.00;62537.16;5106923;28;19923;-79
2022/11/16 02:34:38;;;;;;;;;;;6.50;83.60;;;-151.14;100.00;62537.16;5095445;28;19919;-79
2022/11/16 02:37:07;;;;;;;;;;;6.40;83.50;;;-151.14;100.00;62537.16;5078887;28;20092;-79
2022/11/16 02:39:35;;;;;;;;;;;6.50;83.70;;;-151.14;100.00;62537.16;5113432;28;19920;-79
2022/11/16 02:42:04;;;;;;;;;;;6.40;83.40;;;-151.14;100.00;62537.16;5095655;28;19919;-79
2022/11/16 02:44:33;;;;;;;;;;;6.50;83.60;;;-151.14;100.00;62537.16;5078294;28;19920;-79
2022/11/16 02:47:06;;;;;;;;;;;6.40;83.70;;;-151.14;100.00;62537.16;5095166;28;19926;-78
2022/11/16 02:49:35;;;;;;;;;;;6.40;83.70;;;-151.14;100.00;62537.16;5112181;28;19927;-79
2022/11/16 02:52:03;;;;;;;;;;;6.50;83.70;;;-151.14;100.00;62537.16;5078652;28;19919;-79
2022/11/16 02:54:31;;;;;;;;;;;6.40;83.60;;;-151.14;100.00;62537.16;5113204;28;19920;-79
2022/11/16 02:57:32;;;;;;;;;;;6.50;83.80;;;-151.14;100.00;62537.16;5111958;28;19920;-79
2022/11/16 03:00:00;;;;;;;;;;;6.40;83.70;;;-151.14;100.00;62537.16;5078269;28;20124;-78
2022/11/16 03:02:36;;;;;;;;;;;6.40;83.60;;;-151.14;100.00;62537.16;5095250;28;19920;-79
2022/11/16 03:05:06;;;;;;;;;;;6.40;83.60;;;-151.14;100.00;62537.16;5094470;28;19926;-79
2022/11/16 03:07:42;;;;;;;;;;;6.40;84.40;;;-151.14;100.00;62537.16;5095118;28;20219;-79
2022/11/16 03:10:10;;;;;;;;;;;6.40;83.60;;;-151.14;100.00;62537.16;5094737;28;19919;-79
2022/11/16 03:12:39;;;;;;;;;;;6.40;83.60;;;-151.14;100.00;62537.16;5094700;28;20860;-79
2022/11/16 03:15:07;;;;;;;;;;;6.40;83.70;;;-151.14;100.00;62537.16;5111332;28;19926;-78
2022/11/16 03:17:39;;;;;;;;;;;6.40;83.60;;;-151.14;100.00;62537.16;5095047;28;19926;-78
2022/11/16 03:20:09;;;;;;;;;;;6.40;83.60;;;-151.14;100.00;62537.16;5077605;28;19920;-79
2022/11/16 03:22:40;;;;;;;;;;;6.40;83.60;;;-151.14;100.00;62537.16;5078042;28;20207;-79
2022/11/16 03:25:08;;;;;;;;;;;6.40;83.70;;;-151.14;100.00;62537.16;5111202;28;19926;-78
2022/11/16 03:27:37;;;;;;;;;;;6.40;83.70;;;-151.14;100.00;62537.16;5094827;28;19919;-78
2022/11/16 03:30:07;;;;;;;;;;;6.40;83.60;;;-151.14;100.00;62537.16;5094715;28;20216;-79
2022/11/16 03:32:43;;;;;;;;;;;6.40;83.50;;;-151.14;100.00;62537.16;5111592;28;20220;-78
2022/11/16 03:35:13;;;;;;;;;;;6.40;83.60;;;-151.14;100.00;62537.16;5094239;28;19920;-79
2022/11/16 03:37:42;;;;;;;;;;;6.40;83.60;;;-151.14;100.00;62537.16;5094562;28;20119;-79
2022/11/16 03:40:12;;;;;;;;;;;6.40;83.60;;;-151.14;100.00;62537.16;5094655;28;20116;-78
2022/11/16 03:42:40;;;;;;;;;;;6.40;83.70;;;-151.14;100.00;62537.16;5111548;28;19919;-79
2022/11/16 03:45:10;;;;;;;;;;;6.40;83.70;;;-151.14;100.00;62537.16;5077021;28;19920;-79
2022/11/16 03:47:39;;;;;;;;;;;6.40;83.60;;;-151.14;100.00;62537.16;5111397;28;19926;-78
2022/11/16 03:50:08;;;;;;;;;;;6.40;83.80;;;-151.14;100.00;62537.16;5094471;28;19926;-78
2022/11/16 03:52:36;;;;;;;;;;;6.40;83.70;;;-151.14;100.00;62537.16;5094444;28;20241;-79
2022/11/16 03:55:05;;;;;;;;;;;6.40;83.60;;;-151.14;100.00;62537.16;5093869;28;19920;-78
2022/11/16 03:57:35;;;;;;;;;;;6.40;83.80;;;-151.14;100.00;62537.16;5077476;28;19919;-78
2022/11/16 04:00:04;;;;;;;;;;;6.40;83.80;;;-151.14;100.00;62537.16;5093579;28;20215;-79
2022/11/16 04:02:42;;;;;;;;;;;6.40;83.70;;;-151.14;100.00;62537.16;5111575;28;19926;-79
2022/11/16 04:24:44;;;;;;;;;;;6.40;83.70;;;-151.14;100.00;62537.16;5091239;28;19920;-78
2022/11/16 04:29:59;;;;;;;;;;;6.40;83.70;;;-151.14;100.00;62537.16;5073218;28;19927;-78
2022/11/16 04:38:10;;;;;;;;;;;6.30;83.70;;;-151.14;100.00;62537.16;5056122;28;19927;-78
2022/11/16 04:40:38;;;;;;;;;;;6.30;83.80;;;-151.14;100.00;62537.16;5090531;28;19920;-79
2022/11/16 04:43:06;;;;;;;;;;;6.30;83.90;;;-151.14;100.00;62537.16;5091468;28;20089;-79
2022/11/16 04:48:28;;;;;;;;;;;6.30;83.70;;;-151.14;100.00;62537.16;5056844;28;19926;-78
2022/11/16 04:50:58;;;;;;;;;;;6.30;83.80;;;-151.14;100.00;62537.16;5090257;28;19921;-78
2022/11/16 04:53:27;;;;;;;;;;;6.30;83.90;;;-151.14;100.00;62537.16;5073129;28;20146;-78
2022/11/16 04:56:08;;;;;;;;;;;6.30;83.70;;;-151.14;100.00;62537.16;5089941;28;19920;-78
2022/11/16 04:58:35;;;;;;;;;;;6.30;84.00;;;-151.14;100.00;62537.16;5073340;28;19927;-78
2022/11/16 05:01:04;;;;;;;;;;;6.30;83.80;;;-151.14;100.00;62537.16;5073469;28;19921;-78
2022/11/16 05:03:32;;;;;;;;;;;6.30;83.90;;;-151.14;100.00;62537.16;5089820;28;20094;-78
2022/11/16 05:06:02;;;;;;;;;;;6.30;83.70;;;-151.14;100.00;62537.16;5056347;28;19942;-78
2022/11/16 05:08:30;;;;;;;;;;;6.30;83.90;;;-151.14;100.00;62537.16;5073010;28;19920;-78
2022/11/16 05:10:59;;;;;;;;;;;6.30;84.00;;;-151.14;100.00;62537.16;5073232;28;19926;-79
2022/11/16 05:13:27;;;;;;;;;;;6.30;83.90;;;-151.14;100.00;62537.16;5089713;28;19920;-79
2022/11/16 05:15:55;;;;;;;;;;;6.30;83.70;;;-151.14;100.00;62537.16;5077142;28;19933;-78
2022/11/16 05:18:23;;;;;;;;;;;6.30;83.90;;;-151.14;100.00;62537.16;5110073;28;19920;-78
2022/11/16 05:20:59;;;;;;;;;;;6.30;83.80;;;-151.14;100.00;62537.16;5111283;28;19920;-79
2022/11/16 05:26:19;;;;;;;;;;;6.30;83.90;;;-151.14;100.00;62537.16;5076142;28;19926;-78
2022/11/16 05:28:48;;;;;;;;;;;6.30;83.90;;;-151.14;100.00;62537.16;5093092;28;19920;-78
2022/11/16 05:31:16;;;;;;;;;;;6.30;83.80;;;-151.14;100.00;62537.16;5076168;28;20124;-78
2022/11/16 05:33:44;;;;;;;;;;;6.30;83.90;;;-151.14;100.00;62537.16;5109798;28;19938;-78
2022/11/16 05:36:13;;;;;;;;;;;6.30;83.80;;;-151.14;100.00;62537.16;5092854;28;19981;-79
2022/11/16 05:38:43;;;;;;;;;;;6.30;84.70;;;-151.14;100.00;62537.16;5092949;28;20115;-79
2022/11/16 05:41:11;;;;;;;;;;;6.30;83.90;;;-151.14;100.00;62537.16;5076223;28;19942;-78
2022/11/16 05:43:39;;;;;;;;;;;6.30;83.90;;;-151.14;100.00;62537.16;5095873;28;19928;-78
2022/11/16 05:46:18;;;;;;;;;;;6.30;83.60;;;-151.14;100.00;62537.16;5096109;28;19934;-78
2022/11/16 05:48:46;;;;;;;;;;;6.30;83.80;;;-151.14;100.00;62537.16;5113234;28;19926;-78
2022/11/16 05:51:14;;;;;;;;;;;6.40;83.90;;;-151.14;100.00;62537.16;5096436;28;19920;-78
2022/11/16 05:53:43;;;;;;;;;;;6.30;83.90;;;-151.14;100.00;62537.16;5114134;28;19926;-78
2022/11/16 05:56:14;;;;;;;;;;;6.30;83.90;;;-151.14;100.00;62537.16;5112770;28;19920;-79
2022/11/16 05:58:43;;;;;;;;;;;6.40;83.80;;;-151.14;100.00;62537.16;5096051;28;19919;-79
2022/11/16 06:01:11;;;;;;;;;;;6.40;83.70;;;-151.14;100.00;62537.16;5096210;28;19931;-78
2022/11/16 06:03:39;;;;;;;;;;;6.40;83.60;;;-151.14;100.00;62537.16;5096101;28;19928;-79
2022/11/16 06:06:07;;;;;;;;;;;6.40;83.60;;;-151.14;100.00;62537.16;5095670;28;19926;-78
2022/11/16 06:08:36;;;;;;;;;;;6.50;83.60;;;-151.14;100.00;62537.16;5096032;28;20226;-79
2022/11/16 06:11:09;;;;;;;;;;;6.50;83.40;;;-151.14;100.00;62537.16;5095794;28;19920;-79
2022/11/16 06:13:37;;;;;;;;;;;6.50;83.30;;;-151.14;100.00;62537.16;5112589;28;19926;-79
2022/11/16 06:16:07;;;;;;;;;;;6.50;83.40;;;-151.14;100.00;62537.16;5078605;28;19927;-79
2022/11/16 06:18:38;;;;;;;;;;;6.50;83.30;;;-151.14;100.00;62537.16;5112788;28;20215;-79
2022/11/16 06:21:06;;;;;;;;;;;6.50;83.10;;;-151.14;100.00;62537.16;5079101;28;19927;-79
2022/11/16 06:23:34;;;;;;;;;;;6.50;83.10;;;-151.14;100.00;62537.16;5078742;28;19926;-79
2022/11/16 06:26:02;;;;;;;;;;;6.50;83.00;;;-151.14;100.00;62537.16;5095549;28;19919;-79
2022/11/16 06:28:32;;;;;;;;;;;6.50;82.90;;;-151.14;100.00;62537.16;5078897;28;19920;-79
2022/11/16 06:31:00;;;;;;;;;;;6.50;82.90;;;-151.14;100.00;62537.16;5078749;28;19926;-79
2022/11/16 06:33:31;;;;;;;;;;;6.50;83.20;;;-151.14;100.00;62537.16;5063204;28;19924;-81
2022/11/16 06:35:59;;;;;;;;;;;6.50;83.20;;;-151.14;100.00;62537.16;5058554;28;19927;-81
2022/11/16 06:38:27;;;;;;;;;;;6.50;83.20;;;-151.14;100.00;62537.16;5072674;28;19926;-81
2022/11/16 06:40:57;;;;;;;;;;;6.50;84.00;;;-151.14;100.00;62537.16;5078816;28;19930;-81
2022/11/16 06:43:28;;;;;;;;;;;6.50;83.20;;;-151.14;100.00;62537.16;5112440;28;19934;-81
2022/11/16 06:45:58;;;;;;;;;;;6.50;83.30;;;-151.14;100.00;62537.16;5112112;28;19920;-81
2022/11/16 06:48:26;;;;;;;;;;;6.50;83.20;;;-151.14;100.00;62537.16;5095486;28;19920;-81
2022/11/16 06:50:54;;;;;;;;;;;6.50;83.20;;;-151.14;100.00;62537.16;5095592;28;19926;-81
2022/11/16 06:53:23;;;;;;;;;;;6.50;83.10;;;-151.14;100.00;62537.16;5094597;28;20338;-81
2022/11/16 06:55:51;;;;;;;;;;;6.50;83.00;;;-151.14;100.00;62537.16;5095220;28;19920;-81
2022/11/16 06:58:20;;;;;;;;;;;6.50;83.10;;;-151.14;100.00;62537.16;5095310;28;19920;-81
2022/11/16 07:00:48;;;;;;;;;;;6.50;83.00;;;-151.14;100.00;62537.16;5113433;28;19926;-81
2022/11/16 07:03:18;;;;;;;;;;;6.50;83.10;;;-151.14;100.00;62537.16;5078467;28;20232;-81
2022/11/16 07:05:46;;;;;;;;;;;6.50;83.10;;;-151.14;100.00;62537.16;5078240;28;19924;-81
2022/11/16 07:08:17;;;;;;;;;;;6.50;83.10;;;-151.14;100.00;62537.16;5095177;28;19919;-81
2022/11/16 07:10:45;;;;;;;;;;;6.50;83.10;;;-151.14;100.00;62537.16;5112193;28;20368;-81
2022/11/16 07:13:13;;;;;;;;;;;6.50;83.20;;;-151.14;100.00;62537.16;5095045;28;19920;-81
2022/11/16 07:15:41;;;;;;;;;;;6.50;83.30;;;-151.14;100.00;62537.16;5095041;28;19920;-81
2022/11/16 07:18:09;;;;;;;;;;;6.40;83.20;;;-151.14;100.00;62537.16;5078323;28;19926;-81
2022/11/16 07:20:41;;;;;;;;;;;6.40;83.30;;;-151.14;100.00;62537.16;5094987;28;20234;-81
2022/11/16 07:23:09;;;;;;;;;;;6.50;83.30;;;-151.14;100.00;62537.16;5095152;28;20230;-81
2022/11/16 07:25:37;;;;;;;;;;;6.50;83.40;;;-151.14;100.00;62537.16;5112543;28;19920;-81
2022/11/16 07:28:05;;;;;;;;;;;6.40;83.30;;;-151.14;100.00;62537.16;5078210;28;19942;-81
2022/11/16 07:30:34;;;;;;;;;;;6.40;83.20;;;-151.14;100.00;62537.16;5077999;28;19920;-81
2022/11/16 07:33:08;;;;;;;;;;;6.40;83.30;;;-151.14;100.00;62537.16;5077914;28;19926;-81
2022/11/16 07:36:00;;;;;;;;;;;6.40;83.30;;;-151.14;100.00;62537.16;5094395;28;20093;-81
2022/11/16 07:38:28;;;;;;;;;;;6.40;83.20;;;-151.14;100.00;62537.16;5094891;28;19920;-80
2022/11/16 07:40:59;;;;;;;;;;;6.40;83.30;;;-151.14;100.00;62537.16;5111603;28;19926;-81
2022/11/16 07:43:30;;;;;;;;;;;6.40;84.10;;;-151.14;100.00;62537.16;5094362;28;19920;-81
2022/11/16 07:46:13;;;;;;;;;;;6.40;83.30;;;-151.14;100.00;62537.16;5094415;28;19920;-81
2022/11/16 07:48:41;;;;;;;;;;;6.40;83.30;;;-151.14;100.00;62537.16;5094625;28;19920;-82
2022/11/16 07:51:19;;;;;;;;;;;6.40;83.30;;;-151.14;100.00;62537.16;5094571;28;19919;-81
2022/11/16 07:53:59;;;;;;;;;;;6.40;83.30;;;-151.14;100.00;62537.16;5077602;28;19926;-81
2022/11/16 07:56:27;;;;;;;;;;;6.40;83.20;;;-151.14;100.00;62537.16;5094130;28;19947;-81
2022/11/16 07:58:55;;;;;;;;;;;6.40;83.40;;;-151.14;100.00;62537.16;5094366;28;20093;-81
2022/11/16 08:01:24;;;;;;;;;;;6.40;83.30;;;-151.14;100.00;62537.16;5094350;28;19926;-81
2022/11/16 08:03:53;;;;;;;;;;;6.40;83.40;;;-151.14;100.00;62537.16;5077404;28;19920;-81
2022/11/16 08:06:23;;;;;;;;;;;6.40;83.40;;;-151.14;100.00;62537.16;5112082;28;19920;-80
2022/11/16 08:08:52;;;;;;;;;;;6.40;83.40;;;-151.14;100.00;62537.16;5111222;28;19926;-81
2022/11/16 08:11:20;;;;;;;;;;;6.40;83.40;;;-151.14;100.00;62537.16;5094020;28;19919;-81
2022/11/16 08:13:48;;;;;;;;;;;6.40;83.50;;;-151.14;100.00;62537.16;5094021;28;19920;-81
2022/11/16 08:16:17;;;;;;;;;;;6.40;83.30;;;-151.14;100.00;62537.16;5093988;28;19926;-81
2022/11/16 08:18:47;;;;;;;;;;;6.40;83.40;;;-151.14;100.00;62537.16;5077456;28;19926;-81
2022/11/16 08:21:17;;;;;;;;;;;6.40;84.30;;;-151.14;100.00;62537.16;5111248;28;19920;-81
2022/11/16 08:23:47;;;;;;;;;;;6.40;83.50;;;-151.14;100.00;62537.16;5094003;28;20119;-81
2022/11/16 08:26:16;;;;;;;;;;;6.40;83.40;;;-151.14;100.00;62537.16;5093950;28;19920;-81
2022/11/16 08:28:52;;;;;;;;;;;6.40;83.40;;;-151.14;100.00;62537.16;5094238;28;19919;-81
2022/11/16 08:31:25;;;;;;;;;;;6.40;83.40;;;-151.14;100.00;62537.16;5094389;28;19926;-81
2022/11/16 08:33:59;;;;;;;;;;;6.40;83.40;;;-151.14;100.00;62537.16;5077026;28;20120;-80
2022/11/16 08:36:28;;;;;;;;;;;6.40;83.40;;;-151.14;100.00;62537.16;5110795;28;20089;-81
2022/11/16 08:38:57;;;;;;;;;;;6.40;83.40;;;-151.14;100.00;62537.16;5094154;28;19920;-80
2022/11/16 08:41:26;;;;;;;;;;;6.40;83.40;;;-151.14;100.00;62537.16;5110836;28;19926;-81
2022/11/16 08:43:54;;;;;;;;;;;6.40;83.40;;;-151.14;100.00;62537.16;5111672;28;19919;-81
2022/11/16 08:46:23;;;;;;;;;;;6.40;83.20;;;-151.14;100.00;62537.16;5110567;28;19920;-81
2022/11/16 08:48:57;;;;;;;;;;;6.40;83.40;;;-151.14;100.00;62537.16;5076806;28;19926;-80
2022/11/16 08:51:25;;;;;;;;;;;6.40;83.40;;;-151.14;100.00;62537.16;5093664;28;19920;-80
2022/11/16 08:54:02;;;;;;;;;;;6.40;83.40;;;-151.14;100.00;62537.16;5076963;28;19920;-81
2022/11/16 08:56:32;;;;;;;;;;;6.40;83.40;;;-151.14;100.00;62537.16;5073374;28;19920;-81
2022/11/16 08:59:00;;;;;;;;;;;6.40;83.20;;;-151.14;100.00;62537.16;5073516;28;19920;-80
2022/11/16 09:01:30;;;;;;;;;;;6.40;83.10;;;-151.14;100.00;62537.16;5056583;28;19920;-81
2022/11/16 09:03:58;;;;;;;;;;;6.40;83.00;;;-151.14;100.00;62537.16;5073343;28;20299;-81
2022/11/16 09:06:26;;;;;;;;;;;6.40;82.90;;;-151.14;100.00;62537.16;5073130;28;20143;-80
2022/11/16 09:08:54;;;;;;;;;;;6.40;83.10;;;-151.14;100.00;62537.16;5073404;28;20327;-81
2022/11/16 09:11:24;;;;;;;;;;;6.40;83.00;;;-151.14;100.00;62537.16;5073128;28;19927;-80
2022/11/16 09:13:53;;;;;;;;;;;6.40;83.20;;;-151.14;100.00;62537.16;5073038;28;20119;-80
2022/11/16 09:16:21;;;;;;;;;;;6.40;83.20;;;-151.14;100.00;62537.16;5090802;28;19920;-81
2022/11/16 09:18:49;;;;;;;;;;;6.40;83.10;;;-151.14;100.00;62537.16;5076667;28;19928;-81
2022/11/16 09:21:18;;;;;;;;;;;6.40;83.30;;;-151.14;100.00;62537.16;5094519;28;19920;-81
2022/11/16 09:23:47;;;;;;;;;;;6.40;83.20;;;-151.14;100.00;62537.16;5076720;28;19927;-80
2022/11/16 09:26:15;;;;;;;;;;;6.40;83.20;;;-151.14;100.00;62537.16;5076379;28;19920;-81
2022/11/16 09:28:44;;;;;;;;;;;6.40;83.20;;;-151.14;100.00;62537.16;5076573;28;19920;-81
2022/11/16 09:31:12;;;;;;;;;;;6.40;83.20;;;-151.14;100.00;62537.16;5076647;28;19920;-81
2022/11/16 09:33:40;;;;;;;;;;;6.40;83.20;;;-151.14;100.00;62537.16;5076380;28;19924;-81
2022/11/16 09:36:09;;;;;;;;;;;6.40;83.20;;;-151.14;100.00;62537.16;5076353;28;19920;-81
2022/11/16 09:38:40;;;;;;;;;;;6.40;83.20;;;-151.14;100.00;62537.16;5076352;28;19920;-81
2022/11/16 09:41:19;;;;;;;;;;;6.40;83.10;;;-151.14;100.00;62537.16;5076460;28;19926;-81
2022/11/16 09:43:52;;;;;;;;;;;6.40;83.10;;;-151.14;100.00;62537.16;5094080;28;19920;-81
2022/11/16 09:46:22;;;;;;;;;;;6.40;83.10;;;-151.14;100.00;62537.16;5076135;28;19926;-81
2022/11/16 09:48:50;;;;;;;;;;;6.40;83.10;;;-151.14;100.00;62537.16;5059552;28;19920;-81
2022/11/16 09:51:18;;;;;;;;;;;6.40;83.10;;;-151.14;100.00;62537.16;5094132;28;19920;-81
2022/11/16 09:53:48;;;;;;;;;;;6.40;83.10;;;-151.14;100.00;62537.16;5059087;28;19926;-81
2022/11/16 09:56:18;;;;;;;;;;;6.40;83.10;;;-151.14;100.00;62537.16;5085973;28;20238;-81
2022/11/16 09:58:50;;;;;;;;;;;6.40;83.10;;;-151.14;100.00;62537.16;5114355;28;19928;-81
2022/11/16 10:01:22;;;;;;;;;;;6.40;83.10;;;-151.14;100.00;62537.16;5096283;28;19920;-81
2022/11/16 10:03:51;;;;;;;;;;;6.40;83.00;;;-151.14;100.00;62537.16;5113234;28;20111;-81
2022/11/16 10:06:21;;;;;;;;;;;6.50;83.10;;;-151.14;100.00;62537.16;5113973;28;19920;-81
2022/11/16 10:08:50;;;;;;;;;;;6.50;83.10;;;-151.14;100.00;62537.16;5095875;28;19920;-81
2022/11/16 10:11:36;;;;;;;;;;;6.40;82.90;;;-151.14;100.00;62537.16;5104716;28;19920;-81
2022/11/16 10:14:17;;;;;;;;;;;6.50;82.90;;;-151.14;100.00;62537.16;5093679;28;19927;-81
2022/11/16 10:16:46;;;;;;;;;;;6.50;82.90;;;-151.14;100.00;62537.16;5058979;28;19920;-81
2022/11/16 10:19:17;;;;;;;;;;;6.40;82.80;;;-151.14;100.00;62537.16;5093538;28;19942;-81
2022/11/16 10:21:50;;;;;;;;;;;6.50;83.00;;;-151.14;100.00;62537.16;5075847;28;20136;-81
2022/11/16 10:24:39;;;;;;;;;;;6.50;82.90;;;-151.14;100.00;62537.16;5058952;28;19977;-81
2022/11/16 10:27:16;;;;;;;;;;;6.50;82.90;;;-151.14;100.00;62537.16;5093661;28;19920;-81
2022/11/16 10:29:50;;;;;;;;;;;6.50;82.90;;;-151.14;100.00;62537.16;5074551;28;19920;-81
2022/11/16 10:32:24;;;;;;;;;;;6.50;82.90;;;-151.14;100.00;62537.16;5092211;28;20212;-81
2022/11/16 10:34:53;;;;;;;;;;;6.50;82.80;;;-151.14;100.00;62537.16;5092919;28;19920;-81
2022/11/16 10:37:21;;;;;;;;;;;6.50;82.90;;;-151.14;100.00;62537.16;5093486;28;19927;-81
2022/11/16 10:39:50;;;;;;;;;;;6.50;82.80;;;-151.14;100.00;62537.16;5058706;28;19921;-81
2022/11/16 10:42:19;;;;;;;;;;;6.50;82.80;;;-151.14;100.00;62537.16;5093323;28;19920;-81
2022/11/16 10:44:50;;;;;;;;;;;6.50;82.80;;;-151.14;100.00;62537.16;5092721;28;19934;-81
2022/11/16 10:47:20;;;;;;;;;;;6.50;82.80;;;-151.14;100.00;62537.16;5058629;28;19934;-81
2022/11/16 10:49:52;;;;;;;;;;;6.50;82.60;;;-151.14;100.00;62537.16;5093183;28;20120;-81
2022/11/16 10:52:20;;;;;;;;;;;6.50;82.80;;;-151.14;100.00;62537.16;5091385;28;19920;-81
2022/11/16 10:54:48;;;;;;;;;;;6.50;82.60;;;-151.14;100.00;62537.16;5074877;28;20204;-81
2022/11/16 10:57:16;;;;;;;;;;;6.50;82.70;;;-151.14;100.00;62537.16;5075264;28;19920;-81
2022/11/16 10:59:45;;;;;;;;;;;6.50;82.70;;;-151.14;100.00;62537.16;5075011;28;19920;-81
2022/11/16 11:02:34;;;;;;;;;;;6.50;82.60;;;-151.14;100.00;62537.16;5109040;28;19920;-81
2022/11/16 11:05:04;;;;;;;;;;;6.50;82.50;;;-151.14;100.00;62537.16;5092438;28;19920;-81
2022/11/16 11:07:33;;;;;;;;;;;6.50;82.60;;;-151.14;100.00;62537.16;5092840;28;20093;-81
2022/11/16 11:10:01;;;;;;;;;;;6.50;82.50;;;-151.14;100.00;62537.16;5058170;28;19920;-81
2022/11/16 11:12:38;;;;;;;;;;;6.50;82.50;;;-151.14;100.00;62537.16;5074796;28;20216;-81
2022/11/16 11:15:21;;;;;;;;;;;6.50;82.40;;;-151.14;100.00;62537.16;5092244;28;19926;-81
2022/11/16 11:17:51;;;;;;;;;;;6.50;82.40;;;-151.14;100.00;62537.16;5104898;28;19924;-81
2022/11/16 11:20:21;;;;;;;;;;;6.50;82.50;;;-151.14;100.00;62537.16;5095083;28;20111;-81
2022/11/16 11:22:53;;;;;;;;;;;6.50;82.50;;;-151.14;100.00;62537.16;5094955;28;19919;-81
2022/11/16 11:25:23;;;;;;;;;;;6.50;82.50;;;-151.14;100.00;62537.16;5094276;28;19926;-81
2022/11/16 11:27:51;;;;;;;;;;;6.50;82.40;;;-151.14;100.00;62537.16;5094936;28;19926;-81
2022/11/16 11:30:19;;;;;;;;;;;6.50;82.40;;;-151.14;100.00;62537.16;5112845;28;19926;-81
2022/11/16 11:32:47;;;;;;;;;;;6.50;82.40;;;-151.14;100.00;62537.16;5094864;28;19955;-81
2022/11/16 11:35:23;;;;;;;;;;;6.50;82.40;;;-151.14;100.00;62537.16;5094257;28;20446;-81
2022/11/16 11:37:52;;;;;;;;;;;6.50;82.40;;;-151.14;100.00;62537.16;5094661;28;20119;-81
2022/11/16 11:40:22;;;;;;;;;;;6.50;82.30;;;-151.14;100.00;62537.16;5112408;28;20119;-81
2022/11/16 11:42:55;;;;;;;;;;;6.50;82.40;;;-151.14;100.00;62537.16;5094485;28;19920;-81
2022/11/16 11:45:25;;;;;;;;;;;6.50;82.40;;;-151.14;100.00;62537.16;5112080;28;19920;-81
2022/11/16 11:47:55;;;;;;;;;;;6.50;82.40;;;-151.14;100.00;62537.16;5094630;28;19920;-81
2022/11/16 11:50:25;;;;;;;;;;;6.50;82.40;;;-151.14;100.00;62537.16;5112481;28;19920;-81
2022/11/16 11:53:02;;;;;;;;;;;6.40;82.30;;;-151.14;100.00;62537.16;5112571;28;20118;-81
2022/11/16 11:55:30;;;;;;;;;;;6.40;82.40;;;-151.14;100.00;62537.16;5093875;28;19920;-81
2022/11/16 11:57:58;;;;;;;;;;;6.40;82.30;;;-151.14;100.00;62537.16;5077671;28;19959;-81